Time;durP1;ratioP1;P1;durP2;ratioP2;P2;SDS_P1;SDS_P2;PMS_P1;PMS_P2;Temp;Humidity;BMP_temperature;BMP_pressure;BME280_temperature;BME280_humidity;BME280_pressure;Samples;Min_cycle;Max_cycle;Signal;HPM_P1;HPM_P2
2022/10/08 00:00:59;;;;;;;12.73;5.80;;;;;;;8.12;74.28;101364.45;1713443;83;22592;-70
2022/10/08 00:03:28;;;;;;;12.55;5.90;;;;;;;8.10;74.06;101369.77;1711991;81;21034;-76
2022/10/08 00:06:02;;;;;;;11.38;5.60;;;;;;;8.06;73.84;101366.08;1712741;81;21352;-72
2022/10/08 00:08:31;;;;;;;13.58;5.83;;;;;;;8.01;73.68;101363.72;1709936;82;21022;-71
2022/10/08 00:11:02;;;;;;;12.73;5.72;;;;;;;7.94;73.57;101360.55;1707524;82;21011;-70
2022/10/08 00:13:39;;;;;;;8.78;5.30;;;;;;;7.88;73.51;101354.75;1703854;82;23079;-70
2022/10/08 00:16:02;;;;;;;10.28;5.17;;;;;;;7.83;73.43;101358.10;1717397;83;20951;-70
2022/10/08 00:18:30;;;;;;;12.65;6.40;;;;;;;7.78;73.30;101358.79;1709628;82;21004;-70
2022/10/08 00:21:13;;;;;;;15.23;6.10;;;;;;;7.72;73.22;101357.31;1715664;82;21730;-72
2022/10/08 00:23:41;;;;;;;11.18;6.20;;;;;;;7.66;73.14;101352.39;1718345;83;21014;-70
2022/10/08 00:26:08;;;;;;;12.40;5.90;;;;;;;7.64;73.27;101355.58;1715487;82;21907;-70
2022/10/08 00:28:35;;;;;;;12.15;6.10;;;;;;;7.60;73.30;101348.75;1714875;82;20986;-71
2022/10/08 00:31:15;;;;;;;13.43;5.87;;;;;;;7.58;73.25;101346.20;1716814;83;21494;-70
2022/10/08 00:33:41;;;;;;;10.98;6.00;;;;;;;7.55;73.15;101349.00;1717843;82;21118;-70
2022/10/08 00:36:10;;;;;;;10.18;5.75;;;;;;;7.51;73.07;101344.81;1733129;82;20995;-70
2022/10/08 00:38:37;;;;;;;9.68;5.70;;;;;;;7.49;72.99;101343.20;1719828;82;21810;-70
2022/10/08 00:41:05;;;;;;;12.93;6.15;;;;;;;7.45;73.10;101339.89;1689501;83;21499;-72
2022/10/08 00:43:46;;;;;;;10.25;6.05;;;;;;;7.40;73.16;101330.06;1665464;84;21011;-70
2022/10/08 00:46:39;;;;;;;12.37;6.40;;;;;;;7.38;73.26;101329.30;1701781;82;21071;-71
2022/10/08 00:49:17;;;;;;;10.90;6.33;;;;;;;7.34;73.42;101324.67;1669167;83;21105;-70
2022/10/08 00:51:48;;;;;;;10.08;5.70;;;;;;;7.29;73.66;101326.66;1712310;81;21793;-70
2022/10/08 00:54:16;;;;;;;10.45;5.42;;;;;;;7.29;73.66;101329.30;1684294;83;20995;-71
2022/10/08 00:56:43;;;;;;;9.10;5.35;;;;;;;7.29;73.68;101330.61;1704999;83;21117;-70
2022/10/08 00:59:11;;;;;;;10.78;5.85;;;;;;;7.29;73.85;101321.87;1688419;83;20998;-84
2022/10/08 01:01:42;;;;;;;9.58;5.70;;;;;;;7.30;74.03;101319.62;1680920;83;21008;-70
2022/10/08 01:04:09;;;;;;;10.82;5.30;;;;;;;7.27;74.08;101316.70;1674364;84;21933;-70
2022/10/08 01:06:52;;;;;;;13.75;5.85;;;;;;;7.29;74.11;101317.93;1704207;81;21462;-70
2022/10/08 01:09:58;;;;;;;12.35;5.83;;;;;;;7.28;74.23;101315.77;1703300;82;21407;-73
2022/10/08 01:12:55;;;;;;;10.80;6.10;;;;;;;7.27;74.11;101311.91;1695188;82;20988;-70
2022/10/08 01:15:41;;;;;;;11.20;5.30;;;;;;;7.25;74.10;101310.68;1722960;82;21071;-74
2022/10/08 01:18:27;;;;;;;9.15;4.97;;;;;;;7.26;74.14;101311.06;1708938;82;21795;-70
2022/10/08 01:21:09;;;;;;;12.90;5.70;;;;;;;7.27;74.22;101310.12;1690096;82;21015;-72
2022/10/08 01:24:05;;;;;;;13.85;5.15;;;;;;;7.28;74.42;101310.52;1704862;82;22071;-72
2022/10/08 01:26:50;;;;;;;13.90;4.87;;;;;;;7.29;74.30;101310.89;1701464;82;20996;-70
2022/10/08 01:29:38;;;;;;;10.60;5.20;;;;;;;7.25;74.22;101305.89;1701040;82;21581;-71
2022/10/08 01:32:15;;;;;;;12.25;6.10;;;;;;;7.21;74.41;101302.55;1716989;82;21769;-70
2022/10/08 01:34:45;;;;;;;12.07;5.60;;;;;;;7.23;74.61;101304.63;1714963;82;20976;-70
2022/10/08 01:37:18;;;;;;;11.00;5.15;;;;;;;7.26;74.53;101310.22;1745528;80;21004;-72
2022/10/08 01:39:46;;;;;;;14.18;6.28;;;;;;;7.23;74.32;101302.46;1688403;82;21000;-70
2022/10/08 01:42:13;;;;;;;11.55;5.60;;;;;;;7.17;74.28;101308.90;1716731;82;20956;-70
2022/10/08 01:44:45;;;;;;;7.17;5.10;;;;;;;7.15;74.33;101307.67;1707786;82;21869;-70
2022/10/08 01:47:19;;;;;;;9.95;5.67;;;;;;;7.17;74.34;101308.90;1714892;82;21388;-70
2022/10/08 01:49:50;;;;;;;8.20;5.42;;;;;;;7.17;74.33;101306.27;1702637;83;21004;-70
2022/10/08 01:52:24;;;;;;;10.30;5.67;;;;;;;7.19;74.58;101301.78;1703720;82;21040;-69
2022/10/08 01:54:56;;;;;;;12.58;5.62;;;;;;;7.21;74.70;101303.86;1693651;82;21506;-70
2022/10/08 01:57:22;;;;;;;9.78;5.17;;;;;;;7.24;74.69;101306.79;1711992;82;21902;-70
2022/10/08 02:00:00;;;;;;;7.33;5.17;;;;;;;7.24;74.46;101305.05;1711194;82;20996;-72
2022/10/08 02:02:27;;;;;;;7.75;4.90;;;;;;;7.18;74.38;101306.66;1698488;82;21134;-70
2022/10/08 02:04:54;;;;;;;11.78;5.03;;;;;;;7.16;74.54;101309.36;1706732;82;21447;-73
2022/10/08 02:07:24;;;;;;;9.53;4.45;;;;;;;7.16;74.54;101310.67;1703989;82;21004;-69
2022/10/08 02:09:53;;;;;;;13.48;4.72;;;;;;;7.15;74.39;101312.92;1695337;82;21753;-72
2022/10/08 02:12:21;;;;;;;9.78;4.47;;;;;;;7.11;74.23;101314.45;1727546;81;20992;-70
2022/10/08 02:14:52;;;;;;;9.20;4.42;;;;;;;7.07;74.15;101314.23;1728395;82;21000;-70
2022/10/08 02:17:45;;;;;;;10.13;4.50;;;;;;;7.03;74.06;101309.57;1704763;82;21008;-71
2022/10/08 02:20:22;;;;;;;6.42;4.20;;;;;;;7.00;74.08;101314.13;1708541;82;21040;-71
2022/10/08 02:23:12;;;;;;;8.83;4.53;;;;;;;6.97;74.20;101309.89;1704567;82;21788;-70
2022/10/08 02:25:55;;;;;;;8.85;4.20;;;;;;;6.94;74.13;101316.59;1709849;82;20995;-70
2022/10/08 02:28:48;;;;;;;;;;;;;;;6.91;74.08;101318.53;1708358;82;21062;-70
2022/10/08 02:31:33;;;;;;;12.25;4.28;;;;;;;6.89;74.14;101319.45;1706772;82;20430;-70
2022/10/08 02:34:20;;;;;;;15.20;3.90;;;;;;;6.84;74.04;101318.81;1724312;82;20968;-69
2022/10/08 02:37:11;;;;;;;8.90;3.98;;;;;;;6.80;74.01;101319.91;1709393;82;22012;-72
2022/10/08 02:39:42;;;;;;;9.30;3.70;;;;;;;6.78;74.15;101313.88;1686735;82;21072;-71
2022/10/08 02:42:13;;;;;;;7.05;3.50;;;;;;;6.75;74.08;101317.95;1724951;82;20988;-71
2022/10/08 02:44:51;;;;;;;16.17;4.12;;;;;;;6.74;73.97;101312.31;1704063;82;21066;-70
2022/10/08 02:47:22;;;;;;;8.73;3.90;;;;;;;6.73;73.96;101318.95;1698075;82;21040;-70
2022/10/08 02:49:56;;;;;;;7.58;3.90;;;;;;;6.73;74.14;101319.80;1683913;82;22494;-71
2022/10/08 02:52:22;;;;;;;11.93;4.10;;;;;;;6.75;74.10;101322.35;1693814;82;21079;-70
2022/10/08 02:54:50;;;;;;;9.13;3.77;;;;;;;6.71;73.89;101325.59;1715880;82;21023;-71
2022/10/08 02:57:26;;;;;;;10.05;4.97;;;;;;;6.64;73.82;101321.55;1699018;82;21086;-70
2022/10/08 02:59:52;;;;;;;10.18;5.90;;;;;;;6.60;73.93;101320.86;1684798;82;21007;-77
2022/10/08 03:02:29;;;;;;;11.28;5.80;;;;;;;6.60;74.01;101323.95;1704078;82;21973;-72
2022/10/08 03:05:01;;;;;;;10.25;5.85;;;;;;;6.60;74.24;101318.23;1668588;84;21016;-74
2022/10/08 03:07:29;;;;;;;28.05;22.42;;;;;;;6.61;74.47;101317.77;1706205;82;21476;-73
2022/10/08 03:09:57;;;;;;;39.40;27.80;;;;;;;6.63;74.57;101321.17;1691705;83;21240;-72
2022/10/08 03:12:25;;;;;;;45.25;29.27;;;;;;;6.59;74.35;101315.70;1683509;83;21130;-71
2022/10/08 03:14:52;;;;;;;30.35;21.50;;;;;;;6.55;74.24;101318.05;1707395;83;22517;-70
2022/10/08 03:17:25;;;;;;;17.77;11.18;;;;;;;6.50;74.20;101313.50;1682510;83;21066;-70
2022/10/08 03:19:51;;;;;;;15.18;11.30;;;;;;;6.50;74.42;101312.19;1684860;83;21012;-70
2022/10/08 03:22:17;;;;;;;16.48;7.33;;;;;;;6.54;74.51;101318.98;1710341;82;21541;-71
2022/10/08 03:24:44;;;;;;;11.05;6.92;;;;;;;6.55;74.49;101316.74;1678821;83;20954;-71
2022/10/08 03:27:12;;;;;;;12.47;6.90;;;;;;;6.53;74.26;101315.97;1669183;84;21967;-71
2022/10/08 03:29:39;;;;;;;11.20;6.83;;;;;;;6.47;74.26;101314.97;1689609;83;21012;-70
2022/10/08 03:32:06;;;;;;;12.50;6.10;;;;;;;6.44;74.31;101315.95;1709793;82;21023;-70
2022/10/08 03:34:34;;;;;;;9.53;4.87;;;;;;;6.44;74.43;101306.76;1698513;83;21083;-72
2022/10/08 03:37:00;;;;;;;10.55;5.17;;;;;;;6.46;74.48;101306.68;1712930;82;21024;-72
2022/10/08 03:39:27;;;;;;;8.75;3.87;;;;;;;6.46;74.63;101304.05;1686209;83;21887;-71
2022/10/08 03:41:53;;;;;;;7.75;3.70;;;;;;;6.45;74.50;101304.98;1683353;83;20934;-72
2022/10/08 03:44:20;;;;;;;9.35;3.90;;;;;;;6.42;74.27;101310.39;1692158;83;21446;-72
2022/10/08 03:46:47;;;;;;;7.33;3.87;;;;;;;6.34;74.13;101302.88;1696774;83;22158;-74
2022/10/08 03:49:14;;;;;;;7.37;3.70;;;;;;;6.28;74.25;101305.80;1688551;83;21153;-77
2022/10/08 03:51:42;;;;;;;9.98;3.90;;;;;;;6.27;74.34;101308.88;1718677;82;21929;-72
2022/10/08 03:54:08;;;;;;;5.72;3.87;;;;;;;6.24;74.25;101305.07;1697729;83;21070;-73
2022/10/08 03:56:35;;;;;;;8.28;3.75;;;;;;;6.23;74.23;101304.69;1717054;82;21030;-72
2022/10/08 03:59:02;;;;;;;6.58;3.45;;;;;;;6.22;74.26;101304.77;1719287;82;21026;-72
2022/10/08 04:01:29;;;;;;;6.70;3.80;;;;;;;6.20;74.29;101302.22;1697985;83;21035;-74
2022/10/08 04:03:57;;;;;;;7.92;4.00;;;;;;;6.21;74.31;101295.20;1688495;83;21802;-74
2022/10/08 04:06:23;;;;;;;8.28;4.08;;;;;;;6.20;74.37;101294.34;1714953;82;21334;-73
2022/10/08 04:08:52;;;;;;;8.93;3.55;;;;;;;6.19;74.36;101292.64;1700578;83;21249;-71
2022/10/08 04:11:19;;;;;;;12.07;3.70;;;;;;;6.20;74.41;101290.87;1712742;82;21039;-72
2022/10/08 04:13:47;;;;;;;10.08;3.95;;;;;;;6.21;74.55;101288.63;1693494;83;22151;-72
2022/10/08 04:16:17;;;;;;;9.88;4.00;;;;;;;6.21;74.66;101291.26;1709516;82;21086;-72
2022/10/08 04:18:43;;;;;;;8.75;4.08;;;;;;;6.22;74.53;101290.33;1687906;83;21501;-72
2022/10/08 04:21:13;;;;;;;15.23;4.33;;;;;;;6.20;74.49;101294.34;1707877;82;21013;-75
2022/10/08 04:23:41;;;;;;;8.53;3.98;;;;;;;6.18;74.54;101296.19;1691295;83;21541;-76
2022/10/08 04:26:08;;;;;;;9.68;4.50;;;;;;;6.19;74.68;101294.42;1719980;82;21047;-73
2022/10/08 04:28:38;;;;;;;9.28;4.92;;;;;;;6.21;74.90;101292.11;1688304;83;21804;-71
2022/10/08 04:31:09;;;;;;;9.95;5.22;;;;;;;6.29;75.26;101291.30;1687909;83;21362;-69
2022/10/08 04:33:36;;;;;;;9.10;5.05;;;;;;;6.39;75.64;101293.48;1690755;83;21038;-69
2022/10/08 04:36:09;;;;;;;10.75;5.28;;;;;;;6.48;76.01;101292.59;1700776;83;21019;-70
2022/10/08 04:38:35;;;;;;;9.35;5.22;;;;;;;6.56;76.29;101291.77;1696402;83;20959;-71
2022/10/08 04:41:05;;;;;;;11.48;5.10;;;;;;;6.65;76.56;101297.47;1689176;83;22440;-69
2022/10/08 04:43:33;;;;;;;12.23;5.40;;;;;;;6.71;76.64;101295.41;1718130;83;21011;-69
2022/10/08 04:46:00;;;;;;;10.48;5.17;;;;;;;6.76;76.71;101298.67;1719476;83;20992;-69
2022/10/08 04:48:26;;;;;;;10.00;5.20;;;;;;;6.82;76.74;101299.66;1717606;83;20963;-68
2022/10/08 04:50:59;;;;;;;8.48;4.95;;;;;;;6.88;76.75;101302.47;1692514;83;21044;-69
2022/10/08 04:53:26;;;;;;;9.85;4.75;;;;;;;6.95;76.79;101301.67;1700334;83;21836;-69
2022/10/08 04:55:53;;;;;;;11.78;4.90;;;;;;;7.00;76.75;101308.88;1698279;83;21388;-69
2022/10/08 04:58:19;;;;;;;8.83;4.40;;;;;;;7.03;76.85;101305.63;1712717;83;21046;-69
2022/10/08 05:00:46;;;;;;;10.23;4.00;;;;;;;7.08;77.00;101309.36;1693225;83;21143;-69
2022/10/08 05:03:12;;;;;;;10.32;4.72;;;;;;;7.13;77.15;101304.70;1719436;83;20983;-69
2022/10/08 05:05:41;;;;;;;9.83;4.92;;;;;;;7.21;77.32;101307.80;1693256;83;21920;-69
2022/10/08 05:08:07;;;;;;;10.13;5.12;;;;;;;7.28;77.45;101310.98;1732013;82;21420;-68
2022/10/08 05:10:36;;;;;;;8.25;4.87;;;;;;;7.34;77.54;101304.11;1729973;81;21016;-68
2022/10/08 05:13:04;;;;;;;8.55;5.47;;;;;;;7.40;77.63;101311.20;1747297;81;21565;-69
2022/10/08 05:15:30;;;;;;;12.03;4.95;;;;;;;7.48;77.67;101309.49;1737440;82;21514;-68
2022/10/08 05:17:58;;;;;;;10.03;4.90;;;;;;;7.55;77.79;101303.46;1750555;82;21814;-69
2022/10/08 05:20:24;;;;;;;9.03;5.25;;;;;;;7.61;77.94;101302.66;1735075;82;21394;-70
2022/10/08 05:22:53;;;;;;;9.45;5.60;;;;;;;7.68;78.09;101304.05;1752294;81;20928;-71
2022/10/08 05:25:20;;;;;;;9.43;7.05;;;;;;;7.76;78.29;101299.70;1750533;82;21557;-71
2022/10/08 05:27:46;;;;;;;17.85;10.65;;;;;;;7.86;78.54;101306.17;1697972;82;20960;-68
2022/10/08 05:30:12;;;;;;;16.60;11.33;;;;;;;7.98;78.77;101296.77;1723239;81;21848;-68
2022/10/08 05:32:39;;;;;;;12.13;9.10;;;;;;;8.09;79.04;101297.03;1739926;82;20984;-69
2022/10/08 05:35:07;;;;;;;15.38;10.20;;;;;;;8.22;79.31;101295.45;1752169;81;20981;-69
2022/10/08 05:37:34;;;;;;;15.88;8.98;;;;;;;8.36;79.58;101294.71;1723212;82;20964;-69
2022/10/08 05:40:01;;;;;;;13.00;10.18;;;;;;;8.49;79.83;101291.80;1725885;82;21015;-69
2022/10/08 05:42:27;;;;;;;15.20;11.83;;;;;;;8.63;79.99;101292.32;1737483;81;21863;-69
2022/10/08 05:44:54;;;;;;;17.55;14.60;;;;;;;8.76;80.19;101288.51;1740670;81;21004;-69
2022/10/08 05:47:20;;;;;;;18.80;13.68;;;;;;;8.88;80.40;101286.05;1735727;82;21044;-68
2022/10/08 05:49:46;;;;;;;20.25;13.15;;;;;;;9.02;80.58;101286.55;1731687;81;21016;-69
2022/10/08 05:52:13;;;;;;;15.45;9.83;;;;;;;9.17;80.72;101290.93;1747711;81;20968;-71
2022/10/08 05:54:39;;;;;;;13.40;8.73;;;;;;;9.31;80.85;101286.61;1739979;82;21920;-70
2022/10/08 05:57:05;;;;;;;12.65;8.20;;;;;;;9.44;80.93;101288.41;1708339;82;20973;-69
2022/10/08 05:59:32;;;;;;;10.90;7.12;;;;;;;9.57;81.04;101295.14;1735320;82;21098;-69
2022/10/08 06:01:58;;;;;;;9.68;6.50;;;;;;;9.71;81.12;101292.97;1720447;82;21032;-69
2022/10/08 06:04:25;;;;;;;12.65;6.30;;;;;;;9.83;81.13;101295.31;1745290;81;20965;-69
2022/10/08 06:06:52;;;;;;;8.95;6.12;;;;;;;9.93;81.17;101296.44;1697946;82;21994;-69
2022/10/08 06:09:21;;;;;;;11.73;7.15;;;;;;;10.06;81.24;101300.03;1700816;83;21022;-69
2022/10/08 06:11:47;;;;;;;9.73;6.50;;;;;;;10.18;81.22;101295.30;1716859;83;21054;-69
2022/10/08 06:14:19;;;;;;;10.63;7.60;;;;;;;10.29;81.14;101294.17;1727079;82;21003;-69
2022/10/08 06:16:45;;;;;;;12.53;11.22;;;;;;;10.40;81.02;101297.45;1700871;83;20947;-73
2022/10/08 06:19:11;;;;;;;16.37;9.38;;;;;;;10.50;80.97;101294.59;1702433;81;21882;-70
2022/10/08 06:21:38;;;;;;;9.33;6.62;;;;;;;10.62;80.90;101297.41;1713520;83;20927;-69
2022/10/08 06:24:07;;;;;;;11.10;6.45;;;;;;;10.73;80.78;101294.44;1726920;83;20955;-68
2022/10/08 06:26:36;;;;;;;17.40;6.00;;;;;;;10.83;80.67;101291.56;1725979;83;20959;-68
2022/10/08 06:29:14;;;;;;;10.70;6.50;;;;;;;10.94;80.53;101295.30;1727295;83;21353;-69
2022/10/08 06:31:41;;;;;;;11.48;5.62;;;;;;;11.04;80.41;101292.41;1703438;83;22481;-69
2022/10/08 06:34:07;;;;;;;13.08;5.00;;;;;;;11.15;80.29;101289.41;1723446;81;21512;-69
2022/10/08 06:36:38;;;;;;;9.45;5.12;;;;;;;11.27;80.19;101281.13;1709445;82;20963;-68
2022/10/08 06:39:08;;;;;;;10.28;5.28;;;;;;;11.38;79.92;101281.23;1711699;83;20947;-70
2022/10/08 06:41:36;;;;;;;11.25;5.53;;;;;;;11.46;79.58;101283.36;1716777;82;20944;-68
2022/10/08 06:44:06;;;;;;;8.83;5.55;;;;;;;11.53;79.32;101284.64;1726943;83;21848;-69
2022/10/08 06:46:32;;;;;;;12.30;5.80;;;;;;;11.58;78.95;101278.56;1725210;83;20954;-69
2022/10/08 06:49:00;;;;;;;12.33;5.53;;;;;;;11.69;78.76;101285.28;1726655;83;21015;-68
2022/10/08 06:51:27;;;;;;;12.15;6.37;;;;;;;11.79;78.53;101280.19;1719322;83;20951;-69
2022/10/08 06:53:55;;;;;;;10.70;6.03;;;;;;;11.86;78.05;101280.14;1726651;83;20952;-69
2022/10/08 06:56:23;;;;;;;11.25;5.15;;;;;;;11.90;77.59;101274.17;1722555;83;21840;-68
2022/10/08 06:58:50;;;;;;;11.55;5.40;;;;;;;11.93;77.25;101270.82;1720405;83;20975;-69
2022/10/08 07:01:24;;;;;;;11.05;5.08;;;;;;;12.01;77.00;101268.96;1702160;83;21023;-69
2022/10/08 07:03:54;;;;;;;9.00;5.37;;;;;;;12.08;76.71;101264.08;1713999;83;21425;-68
2022/10/08 07:06:22;;;;;;;10.28;5.58;;;;;;;12.15;76.46;101261.34;1725463;82;21073;-69
2022/10/08 07:08:54;;;;;;;8.85;5.05;;;;;;;12.21;76.12;101266.20;1691450;83;21917;-68
2022/10/08 07:11:22;;;;;;;11.85;5.20;;;;;;;12.28;75.98;101259.52;1692104;83;21479;-69
2022/10/08 07:13:48;;;;;;;8.75;5.20;;;;;;;12.33;75.28;101258.69;1683597;83;21110;-69
2022/10/08 07:16:19;;;;;;;9.65;5.10;;;;;;;12.36;75.02;101260.30;1703858;83;20953;-69
2022/10/08 07:18:49;;;;;;;7.72;4.40;;;;;;;12.43;74.99;101265.48;1694018;83;21411;-69
2022/10/08 07:21:17;;;;;;;7.03;4.28;;;;;;;12.57;74.93;101257.39;1695947;83;21962;-69
2022/10/08 07:23:44;;;;;;;6.95;4.45;;;;;;;12.67;74.54;101251.77;1711162;82;21327;-70
2022/10/08 07:26:14;;;;;;;6.85;4.53;;;;;;;12.78;74.11;101249.64;1689986;83;21558;-69
2022/10/08 07:28:45;;;;;;;7.78;4.42;;;;;;;12.85;73.77;101244.26;1711223;83;21477;-69
2022/10/08 07:31:18;;;;;;;10.32;4.30;;;;;;;13.00;73.87;101243.09;1701687;83;20988;-70
2022/10/08 07:33:45;;;;;;;7.47;3.95;;;;;;;13.13;73.27;101241.70;1711803;83;25317;-69
2022/10/08 07:36:16;;;;;;;14.20;5.37;;;;;;;13.15;72.51;101236.63;1701206;83;21048;-70
2022/10/08 07:38:43;;;;;;;9.50;3.95;;;;;;;13.17;72.10;101233.37;1655606;86;21450;-69
2022/10/08 07:41:11;;;;;;;10.35;4.83;;;;;;;13.18;71.69;101228.91;1686442;83;21943;-71
2022/10/08 07:43:41;;;;;;;11.15;4.58;;;;;;;13.23;71.43;101227.28;1710237;83;21102;-70
2022/10/08 07:46:10;;;;;;;12.43;5.03;;;;;;;13.30;71.15;101221.84;1694816;83;21924;-70
2022/10/08 07:48:37;;;;;;;8.60;5.50;;;;;;;13.39;70.97;101223.78;1682364;83;20984;-70
2022/10/08 07:51:12;;;;;;;7.67;5.60;;;;;;;13.46;70.80;101219.20;1705724;83;20987;-70
2022/10/08 07:53:39;;;;;;;11.53;4.58;;;;;;;13.57;70.75;101214.39;1696037;83;21102;-70
2022/10/08 07:56:07;;;;;;;7.03;4.08;;;;;;;13.72;70.66;101211.86;1683524;83;20992;-70
2022/10/08 07:58:34;;;;;;;9.80;4.00;;;;;;;13.88;70.53;101211.47;1683865;83;21960;-70
2022/10/08 08:01:02;;;;;;;6.80;3.90;;;;;;;14.07;70.22;101209.98;1670013;84;21489;-70
2022/10/08 08:03:30;;;;;;;8.80;3.52;;;;;;;14.19;69.70;101205.88;1696508;83;40681;-70
2022/10/08 08:06:09;;;;;;;10.30;5.20;;;;;;;14.39;69.06;101204.73;1677960;84;21051;-70
2022/10/08 08:08:36;;;;;;;7.85;4.70;;;;;;;14.51;68.34;101199.27;1701408;81;21054;-69
2022/10/08 08:11:04;;;;;;;8.03;4.65;;;;;;;14.65;67.96;101193.28;1698904;82;21904;-69
2022/10/08 08:13:32;;;;;;;7.75;4.20;;;;;;;14.76;67.80;101195.39;1672906;84;20966;-71
2022/10/08 08:16:01;;;;;;;9.98;4.42;;;;;;;14.82;66.86;101190.05;1669195;83;21056;-71
2022/10/08 08:18:30;;;;;;;7.60;4.42;;;;;;;14.85;66.56;101184.47;1734235;81;21488;-71
2022/10/08 08:21:10;;;;;;;8.40;4.05;;;;;;;14.88;66.14;101175.77;1722259;83;21026;-74
2022/10/08 08:23:47;;;;;;;10.35;4.40;;;;;;;14.94;66.12;101175.71;1660010;84;21913;-73
2022/10/08 08:26:22;;;;;;;13.93;4.12;;;;;;;15.01;65.87;101169.39;1705032;81;22812;-71
2022/10/08 08:28:54;;;;;;;6.85;3.47;;;;;;;15.07;65.45;101171.05;1684703;83;21000;-70
2022/10/08 08:31:33;;;;;;;7.50;3.80;;;;;;;15.14;65.07;101168.69;1703516;84;21504;-70
2022/10/08 08:34:06;;;;;;;6.08;3.35;;;;;;;15.17;63.82;101173.28;1730556;81;21026;-69
2022/10/08 08:36:37;;;;;;;7.75;3.65;;;;;;;15.13;63.47;101170.99;1704083;83;21599;-68
2022/10/08 08:39:04;;;;;;;6.75;3.42;;;;;;;15.19;63.50;101170.48;1705686;83;21648;-70
2022/10/08 08:42:07;;;;;;;6.55;4.05;;;;;;;15.29;62.91;101167.38;1739710;81;21026;-69
2022/10/08 08:44:40;;;;;;;4.95;3.37;;;;;;;15.39;62.82;101166.93;1684274;83;20975;-69
2022/10/08 08:47:24;;;;;;;6.65;3.40;;;;;;;15.59;62.31;101161.68;1705844;83;21111;-70
2022/10/08 08:49:55;;;;;;;8.38;3.12;;;;;;;15.72;62.03;101163.14;1691308;83;21809;-70
2022/10/08 08:52:27;;;;;;;6.62;2.92;;;;;;;15.85;60.97;101163.41;1722861;82;21518;-68
2022/10/08 08:54:54;;;;;;;6.45;3.08;;;;;;;15.93;60.41;101167.08;1692597;84;21394;-70
2022/10/08 08:57:44;;;;;;;7.03;3.27;;;;;;;16.01;60.67;101168.54;1700138;81;21023;-69
2022/10/08 09:00:17;;;;;;;8.05;2.60;;;;;;;16.14;59.84;101163.47;1711243;82;21445;-70
2022/10/08 09:03:04;;;;;;;7.37;2.60;;;;;;;16.21;58.08;101160.11;1703257;83;22442;-70
2022/10/08 09:05:34;;;;;;;6.70;2.87;;;;;;;16.34;58.36;101158.98;1702533;83;21046;-70
2022/10/08 09:08:15;;;;;;;7.15;3.15;;;;;;;16.50;58.15;101160.13;1710400;83;21561;-71
2022/10/08 09:10:49;;;;;;;4.17;2.42;;;;;;;16.66;57.44;101156.02;1702630;84;20947;-69
2022/10/08 09:13:23;;;;;;;;;;;;;;;16.78;56.08;101157.08;1702765;82;20987;-70
2022/10/08 09:15:50;;;;;;;4.97;2.72;;;;;;;16.90;55.84;101151.61;1663384;84;22738;-69
2022/10/08 09:18:17;;;;;;;7.28;2.92;;;;;;;17.03;55.61;101152.97;1700911;84;20955;-69
2022/10/08 09:20:44;;;;;;;4.80;2.58;;;;;;;17.20;55.40;101149.20;1701024;84;21012;-69
2022/10/08 09:23:22;;;;;;;5.03;2.15;;;;;;;17.38;55.02;101142.11;1717206;82;20999;-70
2022/10/08 09:26:06;;;;;;;3.80;2.52;;;;;;;17.55;53.55;101145.80;1724335;81;21041;-69
2022/10/08 09:28:55;;;;;;;8.55;2.35;;;;;;;17.61;51.98;101146.56;1692248;84;20948;-69
2022/10/08 09:31:37;;;;;;;5.92;2.50;;;;;;;17.62;52.04;101145.07;1689336;82;21041;-70
2022/10/08 09:34:16;;;;;;;4.58;1.90;;;;;;;17.76;52.74;101147.79;1696415;83;20939;-71
2022/10/08 09:37:02;;;;;;;4.20;1.90;;;;;;;17.91;50.28;101136.92;1718626;82;20956;-71
2022/10/08 09:39:35;;;;;;;5.30;2.00;;;;;;;17.98;50.18;101133.99;1666476;84;21569;-69
2022/10/08 09:42:09;;;;;;;;;;;;;;;18.10;50.51;101131.09;1682015;84;21456;-69
2022/10/08 09:44:48;;;;;;;4.40;1.72;;;;;;;18.24;49.74;101125.23;1681097;83;21032;-70
2022/10/08 09:47:22;;;;;;;5.67;2.10;;;;;;;18.30;48.48;101126.77;1692887;83;21001;-70
2022/10/08 09:50:06;;;;;;;5.25;2.62;;;;;;;18.31;48.12;101124.94;1721607;83;21070;-70
2022/10/08 09:52:34;;;;;;;4.55;2.30;;;;;;;18.38;48.01;101122.50;1692559;83;21472;-72
2022/10/08 09:55:20;;;;;;;3.55;2.20;;;;;;;18.50;48.97;101117.24;1690041;84;22014;-68
2022/10/08 09:57:53;;;;;;;4.12;1.95;;;;;;;18.69;48.53;101120.27;1700753;83;20931;-71
2022/10/08 10:00:36;;;;;;;5.58;2.02;;;;;;;18.86;47.34;101122.06;1711046;82;21603;-71
2022/10/08 10:03:05;;;;;;;3.87;2.10;;;;;;;19.00;47.66;101114.77;1709750;83;20982;-70
2022/10/08 10:05:34;;;;;;;5.08;1.77;;;;;;;19.16;46.47;101112.20;1689239;84;21068;-70
2022/10/08 10:08:00;;;;;;;4.78;1.85;;;;;;;19.26;46.09;101116.09;1716511;83;21841;-70
2022/10/08 10:10:34;;;;;;;2.25;1.57;;;;;;;19.34;45.77;101112.12;1736313;81;20963;-71
2022/10/08 10:13:12;;;;;;;3.00;1.80;;;;;;;19.50;45.64;101109.18;1689380;84;21034;-69
2022/10/08 10:15:59;;;;;;;5.85;2.05;;;;;;;19.71;45.85;101109.61;1729730;82;20977;-70
2022/10/08 10:18:32;;;;;;;6.20;2.10;;;;;;;19.95;45.13;101100.77;1716940;83;21030;-71
2022/10/08 10:21:04;;;;;;;6.15;2.00;;;;;;;20.16;44.88;101099.78;1701885;83;21901;-70
2022/10/08 10:23:36;;;;;;;4.62;2.08;;;;;;;20.29;44.83;101097.47;1702636;83;20991;-70
2022/10/08 10:26:08;;;;;;;3.85;2.33;;;;;;;20.43;44.51;101092.45;1717966;82;21395;-70
2022/10/08 10:29:01;;;;;;;3.45;2.20;;;;;;;20.53;44.06;101085.91;1682112;83;20987;-71
2022/10/08 10:31:42;;;;;;;9.65;2.70;;;;;;;20.62;44.79;101091.27;1681715;84;21119;-70
2022/10/08 10:34:14;;;;;;;4.35;2.10;;;;;;;20.65;43.81;101082.87;1729118;82;21834;-68
2022/10/08 10:36:50;;;;;;;6.20;2.40;;;;;;;20.61;43.71;101081.03;1689844;84;21026;-74
2022/10/08 10:39:43;;;;;;;4.08;2.20;;;;;;;20.64;43.66;101075.83;1681420;83;20985;-71
2022/10/08 10:42:27;;;;;;;6.90;2.67;;;;;;;20.63;43.53;101076.84;1671697;83;21062;-70
2022/10/08 10:45:00;;;;;;;6.20;2.30;;;;;;;20.60;43.36;101069.13;1717545;82;20938;-71
2022/10/08 10:47:30;;;;;;;4.12;2.40;;;;;;;20.54;43.98;101061.24;1698600;83;22604;-70
2022/10/08 10:49:59;;;;;;;4.12;2.27;;;;;;;20.75;43.29;101059.36;1716761;83;20967;-69
2022/10/08 10:53:02;;;;;;;4.90;2.20;;;;;;;20.99;42.77;101053.93;1695519;83;21103;-70
2022/10/08 10:55:56;;;;;;;6.10;2.30;;;;;;;21.19;42.80;101048.98;1709879;83;21033;-72
2022/10/08 10:58:35;;;;;;;5.15;2.50;;;;;;;21.23;41.65;101045.44;1726364;81;20964;-69
2022/10/08 11:01:12;;;;;;;3.92;2.02;;;;;;;21.18;41.51;101034.39;1716864;83;22336;-69
2022/10/08 11:03:57;;;;;;;4.08;2.05;;;;;;;21.22;41.75;101030.33;1718309;83;21494;-68
2022/10/08 11:06:45;;;;;;;3.55;1.82;;;;;;;21.29;41.13;101028.14;1695926;83;20953;-68
2022/10/08 11:09:45;;;;;;;3.05;1.70;;;;;;;21.25;40.51;101020.59;1718540;82;21522;-70
2022/10/08 11:13:03;;;;;;;2.98;1.90;;;;;;;21.06;39.68;101011.95;1691039;84;21003;-69
2022/10/08 11:15:58;;;;;;;3.58;2.00;;;;;;;20.92;41.02;101008.62;1721157;83;21928;-69
2022/10/08 11:18:36;;;;;;;3.85;1.90;;;;;;;21.14;41.36;101006.54;1665631;84;20984;-69
2022/10/08 11:21:30;;;;;;;2.90;1.70;;;;;;;21.33;40.81;101001.78;1721449;83;20956;-69
2022/10/08 11:24:21;;;;;;;3.77;1.80;;;;;;;21.36;39.10;100996.87;1693085;83;20963;-69
2022/10/08 11:27:15;;;;;;;3.40;1.92;;;;;;;21.25;39.46;100993.22;1723061;82;21042;-69
2022/10/08 11:29:56;;;;;;;3.05;1.55;;;;;;;21.22;40.02;100996.75;1668175;84;22293;-69
2022/10/08 11:32:23;;;;;;;6.50;1.70;;;;;;;21.35;39.59;100987.66;1729616;81;20907;-69
2022/10/08 11:34:58;;;;;;;5.35;1.75;;;;;;;21.31;39.71;100983.13;1721668;83;21023;-69
2022/10/08 11:37:42;;;;;;;3.98;1.67;;;;;;;21.40;40.78;100985.25;1752205;81;21358;-69
2022/10/08 11:40:50;;;;;;;3.72;1.60;;;;;;;21.63;39.65;100983.44;1720332;83;21070;-70
2022/10/08 11:43:31;;;;;;;3.75;1.57;;;;;;;21.71;38.23;100978.00;1760557;81;22627;-69
2022/10/08 11:46:28;;;;;;;5.08;1.92;;;;;;;21.56;37.82;100975.75;1721462;83;21404;-69
2022/10/08 11:49:17;;;;;;;4.58;2.70;;;;;;;21.42;39.00;100967.97;1752916;81;20978;-69
2022/10/08 11:51:45;;;;;;;5.75;2.27;;;;;;;21.60;39.36;100962.27;1721721;83;21411;-69
2022/10/08 11:54:30;;;;;;;3.55;2.00;;;;;;;21.99;39.18;100959.94;1728487;81;20971;-69